createdAt,value
2022-08-26T00:00:59.693Z,156.54
2022-08-26T00:06:31.518Z,158.48
2022-08-26T00:12:03.137Z,159.38
2022-08-26T00:17:35.137Z,160.77
2022-08-26T00:23:07.168Z,161.23
2022-08-26T00:28:38.981Z,160.15
2022-08-26T00:34:11.425Z,160.61
2022-08-26T00:39:42.960Z,159.84
2022-08-26T00:45:14.515Z,158.18
2022-08-26T00:50:46.375Z,160.46
2022-08-26T00:56:18.230Z,162.80
2022-08-26T01:01:49.922Z,164.25
2022-08-26T01:07:22.207Z,166.04
2022-08-26T01:12:54.402Z,168.22
2022-08-26T01:18:26.305Z,167.04
2022-08-26T01:29:27.538Z,163.44
2022-08-26T01:34:59.125Z,163.44
2022-08-26T01:51:34.535Z,165.55
2022-08-26T01:57:06.265Z,167.04
2022-08-26T02:02:38.196Z,166.38
2022-08-26T02:08:09.843Z,168.73
2022-08-26T02:19:17.102Z,166.04
2022-08-26T02:24:44.603Z,164.57
2022-08-26T02:30:17.208Z,164.25
2022-08-26T02:35:49.167Z,165.39
2022-08-26T02:46:50.969Z,166.04
2022-08-26T02:52:22.762Z,163.44
2022-08-26T02:57:54.257Z,163.44
2022-08-26T03:03:26.289Z,163.76
2022-08-26T03:08:58.238Z,163.44
2022-08-26T03:25:33.428Z,167.21
2022-08-26T03:31:05.355Z,167.71
2022-08-26T03:36:36.940Z,166.04
2022-08-26T03:47:40.850Z,166.04
2022-08-26T03:53:15.026Z,166.88
2022-08-26T03:58:46.830Z,167.21
2022-08-26T04:09:50.037Z,167.54
2022-08-26T04:15:23.544Z,170.63
2022-08-26T04:20:55.364Z,170.63
2022-08-26T04:26:27.003Z,169.59
2022-08-26T04:31:59.416Z,168.90
2022-08-26T04:37:31.126Z,168.22
2022-08-26T04:43:02.987Z,171.15
2022-08-26T04:48:34.968Z,168.90
2022-08-26T04:54:06.877Z,164.25
2022-08-26T04:59:39.542Z,160.30
2022-08-26T05:05:10.939Z,159.54
2022-08-26T05:10:42.763Z,159.08
2022-08-26T05:16:14.432Z,160.46
2022-08-26T05:21:46.139Z,161.39
2022-08-26T05:27:18.095Z,161.39
2022-08-26T05:32:54.799Z,162.17
2022-08-26T05:38:22.239Z,163.44
2022-08-26T05:43:54.166Z,164.41
2022-08-26T05:54:58.042Z,162.65
2022-08-26T06:00:29.936Z,161.39
2022-08-26T06:06:01.739Z,162.01
2022-08-26T06:11:35.365Z,158.03
2022-08-26T06:17:07.347Z,154.09
2022-08-26T06:28:11.387Z,146.38
2022-08-26T06:33:43.835Z,142.75
2022-08-26T06:50:16.842Z,139.06
2022-08-26T06:55:49.050Z,138.95
2022-08-26T07:01:21.038Z,138.14
2022-08-26T07:12:27.955Z,137.35
2022-08-26T07:18:02.577Z,137.01
2022-08-26T07:23:34.898Z,135.23
2022-08-26T07:29:07.088Z,133.71
2022-08-26T07:34:38.952Z,131.40
2022-08-26T07:40:10.904Z,128.07
2022-08-26T07:45:43.108Z,127.19
2022-08-26T07:51:14.854Z,125.56
2022-08-26T07:56:46.640Z,125.85
2022-08-26T08:02:20.366Z,125.47
2022-08-26T08:07:53.561Z,125.38
2022-08-26T08:13:24.120Z,125.28
2022-08-26T08:18:55.399Z,126.52
2022-08-26T08:24:27.111Z,125.09
2022-08-26T08:29:58.837Z,126.42
2022-08-26T08:35:30.750Z,126.13
2022-08-26T08:46:34.230Z,127.29
2022-08-26T08:52:06.220Z,127.00
2022-08-26T08:57:37.756Z,127.48
2022-08-26T09:03:09.795Z,126.61
2022-08-26T09:08:41.551Z,125.19
2022-08-26T09:14:13.412Z,124.35
2022-08-26T09:19:45.330Z,122.16
2022-08-26T09:25:16.879Z,120.40
2022-08-26T09:30:48.715Z,118.02
2022-08-26T09:36:20.611Z,117.02
2022-08-26T09:41:52.762Z,114.93
2022-08-26T09:47:24.741Z,113.21
2022-08-26T09:52:56.536Z,111.25
2022-08-26T09:58:28.292Z,110.66
2022-08-26T10:04:00.397Z,109.21
2022-08-26T10:09:32.390Z,108.36
2022-08-26T10:15:05.862Z,108.36
2022-08-26T10:20:38.068Z,108.15
2022-08-26T10:26:09.663Z,108.43
2022-08-26T10:31:41.451Z,108.08
2022-08-26T10:42:45.314Z,106.49
2022-08-26T10:48:17.355Z,105.22
2022-08-26T10:53:51.383Z,103.39
2022-08-26T11:04:53.045Z,103.07
2022-08-26T11:10:25.019Z,102.00
2022-08-26T11:15:56.780Z,101.26
2022-08-26T11:18:08.810Z,103.58
2022-08-26T11:23:41.646Z,103.78
2022-08-26T11:29:13.639Z,102.32
2022-08-26T11:34:44.403Z,102.38
2022-08-26T11:40:16.193Z,102.69
2022-08-26T11:45:48.164Z,102.57
2022-08-26T11:51:20.415Z,103.33
2022-08-26T11:56:52.270Z,104.17
2022-08-26T12:02:24.234Z,103.33
2022-08-26T12:07:56.048Z,103.71
2022-08-26T12:13:27.964Z,104.04
2022-08-26T12:18:59.566Z,103.26
2022-08-26T12:24:31.209Z,102.38
2022-08-26T12:30:02.968Z,101.01
2022-08-26T12:35:34.304Z,99.69
2022-08-26T12:41:05.701Z,99.45
2022-08-26T12:46:37.472Z,98.92
2022-08-26T12:52:09.319Z,99.75
2022-08-26T12:57:41.147Z,100.35
2022-08-26T13:03:12.969Z,101.14
2022-08-26T13:08:45.352Z,103.46
2022-08-26T13:14:21.254Z,104.30
2022-08-26T13:19:48.798Z,104.62
2022-08-26T13:25:20.672Z,103.39
2022-08-26T13:30:52.492Z,103.65
2022-08-26T13:36:24.300Z,104.43
2022-08-26T13:41:56.295Z,104.23
2022-08-26T13:47:27.977Z,103.65
2022-08-26T13:52:59.543Z,104.49
2022-08-26T13:58:31.358Z,104.95
2022-08-26T14:04:02.699Z,105.62
2022-08-26T14:09:38.403Z,105.68
2022-08-26T14:15:07.226Z,105.89
2022-08-26T14:26:10.375Z,105.55
2022-08-26T14:31:42.013Z,107.04
2022-08-26T14:42:47.885Z,106.97
2022-08-26T14:53:47.761Z,104.89
2022-08-26T14:59:18.946Z,105.15
2022-08-26T15:04:50.316Z,104.95
2022-08-26T15:10:21.787Z,105.95
2022-08-26T15:15:53.620Z,106.49
2022-08-26T15:21:25.339Z,107.52
2022-08-26T15:26:56.742Z,108.71
2022-08-26T15:32:28.650Z,108.71
2022-08-26T15:38:00.427Z,110.08
2022-08-26T15:49:03.524Z,110.81
2022-08-26T15:54:35.761Z,111.92
2022-08-26T16:00:07.415Z,111.62
2022-08-26T16:05:39.246Z,113.06
2022-08-26T16:11:10.832Z,113.52
2022-08-26T16:16:44.121Z,113.44
2022-08-26T16:22:16.107Z,114.30
2022-08-26T16:27:47.494Z,114.06
2022-08-26T16:33:29.114Z,113.68
2022-08-26T16:38:50.723Z,114.14
2022-08-26T16:49:53.860Z,115.40
2022-08-26T16:55:25.359Z,116.29
2022-08-26T17:00:57.120Z,116.86
2022-08-26T17:06:28.998Z,117.93
2022-08-26T17:12:00.912Z,118.10
2022-08-26T17:17:32.498Z,118.35
2022-08-26T17:23:04.248Z,118.35
2022-08-26T17:28:35.392Z,118.35
2022-08-26T17:34:06.822Z,119.54
2022-08-26T17:39:38.219Z,120.31
2022-08-26T17:45:09.861Z,120.14
2022-08-26T17:50:41.548Z,120.66
2022-08-26T17:56:13.282Z,120.14
2022-08-26T18:01:45.115Z,119.97
2022-08-26T18:07:16.945Z,121.10
2022-08-26T18:12:48.828Z,119.97
2022-08-26T18:19:52.435Z,123.89
2022-08-26T18:25:24.291Z,125.09
2022-08-26T18:30:57.414Z,124.91
2022-08-26T18:36:29.480Z,124.81
2022-08-26T19:18:31.864Z,109.00
2022-08-26T19:29:39.088Z,111.62
2022-08-26T19:35:11.976Z,119.54
2022-08-26T19:40:44.281Z,128.56
2022-08-26T19:46:16.342Z,134.58
2022-08-26T19:51:48.167Z,139.88
2022-08-26T19:57:20.010Z,143.73
2022-08-26T20:02:51.618Z,147.55
2022-08-26T20:08:23.667Z,150.07
2022-08-26T20:13:55.430Z,153.10
2022-08-26T20:19:27.296Z,151.84
2022-08-26T20:24:58.771Z,156.10
2022-08-26T20:30:30.638Z,153.24
2022-08-26T20:36:02.611Z,148.20
2022-08-26T20:41:33.960Z,145.24
2022-08-26T20:47:05.506Z,143.12
2022-08-26T20:52:37.291Z,140.94
2022-08-26T20:58:09.146Z,139.53
2022-08-26T21:03:40.878Z,138.72
2022-08-26T21:09:12.598Z,139.29
2022-08-26T21:14:48.953Z,137.57
2022-08-26T21:20:16.658Z,139.41
2022-08-26T21:25:48.792Z,144.61
2022-08-26T21:31:20.648Z,144.73
2022-08-26T21:36:52.229Z,145.36
2022-08-26T21:42:24.067Z,146.64
2022-08-26T21:47:55.768Z,145.62
2022-08-26T21:53:27.750Z,144.36
2022-08-26T21:58:59.496Z,149.53
2022-08-26T22:04:31.334Z,144.61
2022-08-26T22:10:03.291Z,141.06
2022-08-26T22:15:35.324Z,138.03
2022-08-26T22:21:07.441Z,137.23
2022-08-26T22:26:39.404Z,135.89
2022-08-26T22:32:11.329Z,134.90
2022-08-26T22:37:43.185Z,135.01
2022-08-26T22:43:15.009Z,133.82
2022-08-26T22:48:46.859Z,135.23
2022-08-26T22:54:18.818Z,135.67
2022-08-26T22:59:50.619Z,137.01
2022-08-26T23:10:53.787Z,142.99
2022-08-26T23:16:25.749Z,150.20
2022-08-26T23:21:57.888Z,155.96
2022-08-26T23:26:33.347Z,148.33
2022-08-26T23:32:04.082Z,152.82
2022-08-26T23:37:34.959Z,150.88
2022-08-26T23:43:06.948Z,147.16
2022-08-26T23:48:38.712Z,143.98
2022-08-26T23:54:10.526Z,142.26
2022-08-26T23:59:42.118Z,140.94
